Time;durP1;ratioP1;P1;durP2;ratioP2;P2;SDS_P1;SDS_P2;PMS_P1;PMS_P2;Temp;Humidity;BMP_temperature;BMP_pressure;BME280_temperature;BME280_humidity;BME280_pressure;Samples;Min_cycle;Max_cycle;Signal;HPM_P1;HPM_P2
2020/12/18 00:01:30;;;;;;;66.40;43.25;;;10.40;99.90;;;;;;5053036;28;20115;-72
2020/12/18 00:03:57;;;;;;;71.43;46.78;;;10.40;99.90;;;;;;5054894;28;20025;-71
2020/12/18 00:06:24;;;;;;;67.22;44.85;;;10.30;99.90;;;;;;5054767;28;20025;-71
2020/12/18 00:08:50;;;;;;;79.97;49.05;;;10.30;99.90;;;;;;5053328;28;20033;-71
2020/12/18 00:11:23;;;;;;;79.30;48.70;;;10.30;99.90;;;;;;5054317;28;20035;-72
2020/12/18 00:13:50;;;;;;;74.55;47.35;;;10.30;99.90;;;;;;5054938;28;20024;-72
2020/12/18 00:16:17;;;;;;;76.90;48.88;;;10.30;99.90;;;;;;5055074;28;20017;-71
2020/12/18 00:18:43;;;;;;;80.90;46.63;;;10.30;99.90;;;;;;5054313;28;20024;-72
2020/12/18 00:21:08;;;;;;;79.57;48.38;;;10.30;99.90;;;;;;5052502;28;20115;-71
2020/12/18 00:23:34;;;;;;;71.25;46.13;;;10.30;99.90;;;;;;5052554;28;20025;-71
2020/12/18 00:26:00;;;;;;;74.65;44.47;;;10.30;99.90;;;;;;5039649;28;20057;-70
2020/12/18 00:28:26;;;;;;;68.22;43.30;;;10.30;99.90;;;;;;5054649;28;20023;-71
2020/12/18 00:30:51;;;;;;;75.65;46.58;;;10.30;99.90;;;;;;5054405;28;20036;-72
2020/12/18 00:33:17;;;;;;;76.70;46.42;;;10.40;99.90;;;;;;5045838;28;20025;-71
2020/12/18 00:35:43;;;;;;;68.43;44.20;;;10.40;99.90;;;;;;5053219;28;20040;-71
2020/12/18 00:38:09;;;;;;;72.65;45.85;;;10.40;99.90;;;;;;5054070;28;20096;-72
2020/12/18 00:40:35;;;;;;;68.93;42.75;;;10.40;99.90;;;;;;5054043;28;20098;-70
2020/12/18 00:43:00;;;;;;;68.93;42.65;;;10.40;99.90;;;;;;5052805;28;20032;-71
2020/12/18 00:45:26;;;;;;;66.13;42.55;;;10.40;99.90;;;;;;5054024;28;20032;-71
2020/12/18 00:47:52;;;;;;;64.13;39.53;;;10.40;99.90;;;;;;5054203;28;20057;-71
2020/12/18 00:50:17;;;;;;;65.05;39.90;;;10.40;99.90;;;;;;5053876;28;20059;-72
2020/12/18 00:52:43;;;;;;;61.50;39.03;;;10.40;99.90;;;;;;5052001;28;20087;-71
2020/12/18 00:55:08;;;;;;;57.05;38.88;;;10.40;99.90;;;;;;5052955;28;20036;-72
2020/12/18 00:57:34;;;;;;;56.38;36.88;;;10.40;99.90;;;;;;5053716;28;20021;-71
2020/12/18 01:00:00;;;;;;;57.97;37.67;;;10.40;99.90;;;;;;5039664;28;20083;-71
2020/12/18 01:02:25;;;;;;;57.83;37.78;;;10.40;99.90;;;;;;5053181;28;20036;-71
2020/12/18 01:04:52;;;;;;;65.45;40.40;;;10.40;99.90;;;;;;5053379;28;20078;-71
2020/12/18 01:07:17;;;;;;;59.50;39.88;;;10.40;99.90;;;;;;5053442;28;20029;-71
2020/12/18 01:09:43;;;;;;;65.43;39.80;;;10.40;99.90;;;;;;5053514;28;20087;-72
2020/12/18 01:12:12;;;;;;;66.22;39.47;;;10.40;99.90;;;;;;5053454;28;20033;-71
2020/12/18 01:14:39;;;;;;;65.13;39.78;;;10.40;99.90;;;;;;5051723;28;20036;-71
2020/12/18 01:17:05;;;;;;;66.20;39.95;;;10.40;99.90;;;;;;5053453;28;20029;-72
2020/12/18 01:19:31;;;;;;;61.92;38.13;;;10.40;99.90;;;;;;5053206;28;20024;-71
2020/12/18 01:21:56;;;;;;;50.63;35.22;;;10.40;99.90;;;;;;5049074;28;20064;-72
2020/12/18 01:24:22;;;;;;;50.83;34.13;;;10.40;99.90;;;;;;5050244;28;20028;-70
2020/12/18 01:26:48;;;;;;;52.88;33.88;;;10.40;99.90;;;;;;5052215;28;20025;-71
2020/12/18 01:29:14;;;;;;;53.78;32.28;;;10.40;99.90;;;;;;5053026;28;20025;-70
2020/12/18 01:31:41;;;;;;;41.67;27.60;;;10.40;99.90;;;;;;5053126;28;20060;-71
2020/12/18 01:34:06;;;;;;;48.63;29.50;;;10.40;99.90;;;;;;5053115;28;20017;-71
2020/12/18 01:36:32;;;;;;;42.20;29.02;;;10.40;99.90;;;;;;5053109;28;20047;-71
2020/12/18 01:38:58;;;;;;;44.08;29.67;;;10.40;99.90;;;;;;5053172;28;20025;-71
2020/12/18 01:41:24;;;;;;;47.33;29.88;;;10.40;99.90;;;;;;5053067;28;20029;-71
2020/12/18 01:43:49;;;;;;;44.28;29.70;;;10.40;99.90;;;;;;5053048;28;20055;-71
2020/12/18 01:46:16;;;;;;;47.30;31.85;;;10.40;99.90;;;;;;5052709;28;20044;-71
2020/12/18 01:48:43;;;;;;;46.35;31.98;;;10.30;99.90;;;;;;5052971;28;20033;-70
2020/12/18 01:51:11;;;;;;;51.35;33.75;;;10.40;99.90;;;;;;5052274;28;20067;-70
2020/12/18 01:53:38;;;;;;;51.33;33.45;;;10.40;99.90;;;;;;5050737;28;20032;-71
2020/12/18 01:56:05;;;;;;;57.45;34.05;;;10.40;99.90;;;;;;5052424;28;20017;-71
2020/12/18 01:58:34;;;;;;;51.30;34.15;;;10.30;99.90;;;;;;5052875;28;20017;-71
2020/12/18 02:01:04;;;;;;;65.88;34.67;;;10.30;99.90;;;;;;5052450;28;20025;-71
2020/12/18 02:03:30;;;;;;;55.92;34.08;;;10.30;99.90;;;;;;5052396;28;20021;-71
2020/12/18 02:05:58;;;;;;;53.88;32.88;;;10.30;99.90;;;;;;5050728;28;20487;-69
2020/12/18 02:08:26;;;;;;;49.85;33.17;;;10.30;99.90;;;;;;5050527;28;20403;-70
2020/12/18 02:10:54;;;;;;;52.35;32.83;;;10.30;99.90;;;;;;5052123;28;20060;-71
2020/12/18 02:13:21;;;;;;;41.28;26.83;;;10.30;99.90;;;;;;5051997;28;20017;-71
2020/12/18 02:15:50;;;;;;;42.50;27.65;;;10.30;99.90;;;;;;5052474;28;20036;-70
2020/12/18 02:18:16;;;;;;;48.42;27.70;;;10.30;99.90;;;;;;5051235;28;20044;-70
2020/12/18 02:20:42;;;;;;;44.70;30.13;;;10.30;99.90;;;;;;5051952;28;20056;-71
2020/12/18 02:23:08;;;;;;;37.85;25.45;;;10.30;99.90;;;;;;5047971;28;20453;-71
2020/12/18 02:25:37;;;;;;;37.30;24.80;;;10.30;99.90;;;;;;5049005;28;20017;-71
2020/12/18 02:28:03;;;;;;;41.63;26.55;;;10.30;99.90;;;;;;5052139;28;20037;-71
2020/12/18 02:30:29;;;;;;;39.65;26.67;;;10.30;99.90;;;;;;5051333;28;20111;-71
2020/12/18 02:32:54;;;;;;;40.05;27.40;;;10.40;99.90;;;;;;5051869;28;20024;-71
2020/12/18 02:35:20;;;;;;;38.47;27.85;;;10.40;99.90;;;;;;5051785;28;20036;-72
2020/12/18 02:37:46;;;;;;;40.65;26.42;;;10.40;99.90;;;;;;5051888;28;20341;-72
2020/12/18 02:40:11;;;;;;;41.05;26.70;;;10.40;99.90;;;;;;5050379;28;20029;-71
2020/12/18 02:42:37;;;;;;;37.05;25.88;;;10.40;99.90;;;;;;5051045;28;20033;-72
2020/12/18 02:45:03;;;;;;;37.25;25.35;;;10.40;99.90;;;;;;5051732;28;20033;-72
2020/12/18 02:47:29;;;;;;;43.00;25.90;;;10.40;99.90;;;;;;5037766;28;20094;-72
2020/12/18 02:49:55;;;;;;;37.55;25.02;;;10.40;99.90;;;;;;5050697;28;20092;-72
2020/12/18 02:52:21;;;;;;;36.65;22.98;;;10.40;99.90;;;;;;5050084;28;20388;-72
2020/12/18 02:54:47;;;;;;;33.47;22.40;;;10.40;99.90;;;;;;5061696;28;20531;-72
2020/12/18 02:57:12;;;;;;;32.45;21.92;;;10.40;99.90;;;;;;5050464;28;20052;-72
2020/12/18 02:59:38;;;;;;;29.88;22.73;;;10.40;99.90;;;;;;5064353;28;20025;-72
2020/12/18 03:02:03;;;;;;;34.28;23.30;;;10.40;99.90;;;;;;5055887;28;20025;-72
2020/12/18 03:04:29;;;;;;;32.42;22.35;;;10.40;99.90;;;;;;5062167;28;20056;-72
2020/12/18 03:06:55;;;;;;;35.95;23.13;;;10.50;99.90;;;;;;5055227;28;20032;-72
2020/12/18 03:09:22;;;;;;;35.80;22.10;;;10.50;99.90;;;;;;5072045;28;20020;-72
2020/12/18 03:11:47;;;;;;;30.95;21.33;;;10.50;99.90;;;;;;5060005;28;20022;-72
2020/12/18 03:14:13;;;;;;;37.13;24.38;;;10.50;99.90;;;;;;5065403;28;20082;-72
2020/12/18 03:16:39;;;;;;;39.17;25.38;;;10.50;99.90;;;;;;5060775;28;20027;-71
2020/12/18 03:19:06;;;;;;;35.38;24.17;;;10.50;99.90;;;;;;5066240;28;20021;-72
2020/12/18 03:21:31;;;;;;;32.20;23.33;;;10.50;99.90;;;;;;5062146;28;20052;-72
2020/12/18 03:23:57;;;;;;;32.47;22.95;;;10.60;99.90;;;;;;5052471;28;20074;-72
2020/12/18 03:26:23;;;;;;;34.80;24.80;;;10.60;99.90;;;;;;5060588;28;20033;-72
2020/12/18 03:28:48;;;;;;;33.58;23.33;;;10.60;99.90;;;;;;5052080;28;20155;-72
2020/12/18 03:31:14;;;;;;;35.97;24.92;;;10.60;99.90;;;;;;5056232;28;20522;-72
2020/12/18 03:33:40;;;;;;;36.30;24.75;;;10.60;99.90;;;;;;5058983;28;20519;-72
2020/12/18 03:36:05;;;;;;;38.25;26.55;;;10.60;99.90;;;;;;5049982;28;20032;-71
2020/12/18 03:38:31;;;;;;;32.83;23.60;;;10.60;99.90;;;;;;5051893;28;20032;-72
2020/12/18 03:40:57;;;;;;;29.85;22.08;;;10.70;99.90;;;;;;5051320;28;20031;-72
2020/12/18 03:43:22;;;;;;;35.70;22.52;;;10.70;99.90;;;;;;5071832;28;20509;-73
2020/12/18 03:45:48;;;;;;;29.42;21.45;;;10.70;99.90;;;;;;5057205;28;20132;-71
2020/12/18 03:48:14;;;;;;;31.38;22.02;;;10.70;99.90;;;;;;5067428;28;20051;-72
2020/12/18 03:50:39;;;;;;;31.98;20.50;;;10.70;99.90;;;;;;5071604;28;20024;-72
2020/12/18 03:53:05;;;;;;;31.48;22.10;;;10.70;99.90;;;;;;5071405;28;20104;-72
2020/12/18 03:55:31;;;;;;;33.03;23.33;;;10.70;99.90;;;;;;5071229;28;20078;-72
2020/12/18 03:57:56;;;;;;;31.77;21.58;;;10.70;99.90;;;;;;5059247;28;20040;-72
2020/12/18 04:00:22;;;;;;;36.72;23.77;;;10.70;99.90;;;;;;5070391;28;20038;-72
2020/12/18 04:02:47;;;;;;;33.85;22.42;;;10.70;99.90;;;;;;5071434;28;20159;-72
2020/12/18 04:05:13;;;;;;;27.20;18.15;;;10.70;99.90;;;;;;5071037;28;20020;-72
2020/12/18 04:07:40;;;;;;;28.30;21.27;;;10.70;99.90;;;;;;5071245;28;20380;-72
2020/12/18 04:10:06;;;;;;;31.40;20.38;;;10.70;99.90;;;;;;5070950;28;20686;-72
2020/12/18 04:12:32;;;;;;;28.00;19.77;;;10.70;99.90;;;;;;5070812;28;20404;-72
2020/12/18 04:14:58;;;;;;;26.00;18.00;;;10.70;99.90;;;;;;5071656;28;20021;-72
2020/12/18 04:17:24;;;;;;;26.17;17.55;;;10.70;99.90;;;;;;5071297;28;20016;-72
2020/12/18 04:19:49;;;;;;;32.08;20.42;;;10.70;99.90;;;;;;5071244;28;20032;-72
2020/12/18 04:22:15;;;;;;;27.27;19.52;;;10.70;99.90;;;;;;5070721;28;20056;-72
2020/12/18 04:24:41;;;;;;;30.48;21.50;;;10.70;99.90;;;;;;5070683;28;20024;-72
2020/12/18 04:27:06;;;;;;;31.33;21.08;;;10.70;99.90;;;;;;5066492;28;20176;-71
2020/12/18 04:29:32;;;;;;;32.22;21.23;;;10.70;99.90;;;;;;5072112;28;20021;-72
2020/12/18 04:31:59;;;;;;;28.27;19.20;;;10.70;99.90;;;;;;5074520;28;20035;-72
2020/12/18 04:34:24;;;;;;;30.90;20.70;;;10.70;99.90;;;;;;5074639;28;20042;-72
2020/12/18 04:36:50;;;;;;;34.65;21.30;;;10.70;99.90;;;;;;5074649;28;20028;-71
2020/12/18 04:39:16;;;;;;;28.55;20.85;;;10.70;99.90;;;;;;5074682;28;20021;-72
2020/12/18 04:41:41;;;;;;;29.27;20.35;;;10.70;99.90;;;;;;5074799;28;20110;-72
2020/12/18 04:44:08;;;;;;;30.70;21.10;;;10.60;99.90;;;;;;5074310;28;20029;-72
2020/12/18 04:46:35;;;;;;;36.30;20.63;;;10.60;99.90;;;;;;5074171;28;20376;-72
2020/12/18 04:49:02;;;;;;;30.10;21.58;;;10.60;99.90;;;;;;5074279;28;20187;-72
2020/12/18 04:51:28;;;;;;;31.92;20.73;;;10.60;99.90;;;;;;5074301;28;20135;-72
2020/12/18 04:53:55;;;;;;;31.98;20.63;;;10.60;99.90;;;;;;5074283;28;20056;-72
2020/12/18 04:56:25;;;;;;;29.00;20.25;;;10.50;99.90;;;;;;5074002;28;20028;-72
2020/12/18 04:58:53;;;;;;;34.78;23.35;;;10.50;99.90;;;;;;5069064;28;20032;-72
2020/12/18 05:01:23;;;;;;;35.35;22.90;;;10.50;99.90;;;;;;5073671;28;20078;-72
2020/12/18 05:03:50;;;;;;;32.80;21.15;;;10.50;99.90;;;;;;5073777;28;20384;-72
2020/12/18 05:06:17;;;;;;;28.02;20.85;;;10.50;99.90;;;;;;5073697;28;20468;-72
2020/12/18 05:08:43;;;;;;;36.25;21.92;;;10.50;99.90;;;;;;5073522;28;20024;-72
2020/12/18 05:11:23;;;;;;;27.10;20.33;;;10.50;99.90;;;;;;5074342;28;20020;-72
2020/12/18 05:13:52;;;;;;;28.98;21.50;;;10.50;99.90;;;;;;5073852;28;20031;-73
2020/12/18 05:16:19;;;;;;;31.90;22.02;;;10.60;99.90;;;;;;5073669;28;20024;-72
2020/12/18 05:18:45;;;;;;;28.17;21.52;;;10.60;99.90;;;;;;5073464;28;20403;-71
2020/12/18 05:21:11;;;;;;;35.60;22.58;;;10.60;99.90;;;;;;5073637;28;20463;-72
2020/12/18 05:23:41;;;;;;;40.47;27.55;;;10.60;99.90;;;;;;5073536;28;20096;-72
2020/12/18 05:26:08;;;;;;;42.22;26.88;;;10.60;99.90;;;;;;5073770;28;20070;-71
2020/12/18 05:28:41;;;;;;;38.88;26.27;;;10.60;99.90;;;;;;5064178;28;20538;-71
2020/12/18 05:31:14;;;;;;;42.30;27.25;;;10.60;99.90;;;;;;5046979;28;20032;-72
2020/12/18 05:33:41;;;;;;;43.30;29.48;;;10.60;99.90;;;;;;5073585;28;20032;-71
2020/12/18 05:36:07;;;;;;;42.58;28.00;;;10.60;99.90;;;;;;5073033;28;20089;-72
2020/12/18 05:38:40;;;;;;;41.83;28.98;;;10.60;99.90;;;;;;5073271;28;20020;-72
2020/12/18 05:41:08;;;;;;;39.23;25.80;;;10.50;99.90;;;;;;5064105;28;20021;-71
2020/12/18 05:43:41;;;;;;;39.85;27.13;;;10.50;99.90;;;;;;5052871;28;20048;-71
2020/12/18 05:46:19;;;;;;;37.42;25.80;;;10.60;99.90;;;;;;5048000;28;20017;-72
2020/12/18 05:48:52;;;;;;;37.80;26.38;;;10.60;99.90;;;;;;5050834;28;20029;-71
2020/12/18 05:51:38;;;;;;;46.63;26.63;;;10.60;99.90;;;;;;5051096;28;20021;-71
2020/12/18 05:54:19;;;;;;;41.00;27.67;;;10.60;99.90;;;;;;5052972;28;20048;-72
2020/12/18 05:56:52;;;;;;;39.28;26.30;;;10.60;99.90;;;;;;5044143;28;20035;-71
2020/12/18 05:59:19;;;;;;;41.00;26.50;;;10.60;99.90;;;;;;5053220;28;20021;-72
2020/12/18 06:01:51;;;;;;;36.08;26.08;;;10.60;99.90;;;;;;5055544;28;20048;-72
2020/12/18 06:04:22;;;;;;;45.78;27.00;;;10.60;99.90;;;;;;5072718;28;20441;-71
2020/12/18 06:06:49;;;;;;;40.92;26.38;;;10.60;99.90;;;;;;5072353;28;20112;-72
2020/12/18 06:09:17;;;;;;;39.53;25.55;;;10.60;99.90;;;;;;5072524;28;20074;-72
2020/12/18 06:11:42;;;;;;;37.92;24.38;;;10.60;99.90;;;;;;5072494;28;20441;-72
2020/12/18 06:14:10;;;;;;;32.10;23.45;;;10.60;99.90;;;;;;5072664;28;20095;-72
2020/12/18 06:16:44;;;;;;;36.67;24.00;;;10.60;99.90;;;;;;5072859;28;20119;-72
2020/12/18 06:19:12;;;;;;;44.58;25.25;;;10.70;99.90;;;;;;5067620;28;20078;-72
2020/12/18 06:21:38;;;;;;;37.08;24.45;;;10.70;99.90;;;;;;5070466;28;20131;-71
2020/12/18 06:24:05;;;;;;;33.53;22.63;;;10.70;99.90;;;;;;5072411;28;20016;-72
2020/12/18 06:26:31;;;;;;;35.25;24.05;;;10.70;99.90;;;;;;5064047;28;20503;-72
2020/12/18 06:29:04;;;;;;;35.58;24.50;;;10.70;99.90;;;;;;5052564;28;20100;-71
2020/12/18 06:31:32;;;;;;;42.58;24.85;;;10.70;99.90;;;;;;5050722;28;20016;-71
2020/12/18 06:34:01;;;;;;;40.35;25.55;;;10.70;99.90;;;;;;5054045;28;20104;-72
2020/12/18 06:36:48;;;;;;;38.45;25.23;;;10.70;99.90;;;;;;5042685;28;20426;-72
2020/12/18 06:39:19;;;;;;;34.03;23.92;;;10.70;99.90;;;;;;5051373;28;20025;-71
2020/12/18 06:41:45;;;;;;;37.22;25.10;;;10.70;99.90;;;;;;5051725;28;20065;-71
2020/12/18 06:44:36;;;;;;;37.47;26.48;;;10.70;99.90;;;;;;5049272;28;20024;-71
2020/12/18 06:47:09;;;;;;;40.25;25.00;;;10.70;99.90;;;;;;5048543;28;20017;-72
2020/12/18 06:49:58;;;;;;;40.33;27.10;;;10.70;99.90;;;;;;5041733;28;20028;-72
2020/12/18 06:52:41;;;;;;;46.72;26.80;;;10.70;99.90;;;;;;5049906;28;20039;-71
2020/12/18 06:55:09;;;;;;;39.92;26.27;;;10.70;99.90;;;;;;5047833;28;20432;-72
2020/12/18 06:57:34;;;;;;;41.08;27.65;;;10.70;99.90;;;;;;5050486;28;20013;-72
2020/12/18 07:00:25;;;;;;;35.28;25.77;;;10.70;99.90;;;;;;5051050;28;20027;-72
2020/12/18 07:02:51;;;;;;;44.53;25.40;;;10.70;99.90;;;;;;5050829;28;20083;-73
2020/12/18 07:05:30;;;;;;;39.55;27.35;;;10.70;99.90;;;;;;5063401;28;20021;-72
2020/12/18 07:07:58;;;;;;;34.35;24.13;;;10.70;99.90;;;;;;5043406;28;20037;-72
2020/12/18 07:10:28;;;;;;;39.70;25.42;;;10.70;99.90;;;;;;5051291;28;20017;-71
2020/12/18 07:12:58;;;;;;;33.10;22.40;;;10.70;99.90;;;;;;5047280;28;20033;-73
2020/12/18 07:15:46;;;;;;;34.08;21.23;;;10.70;99.90;;;;;;5050053;28;20027;-72
2020/12/18 07:18:21;;;;;;;36.08;20.90;;;10.70;99.90;;;;;;5051346;28;20497;-72
2020/12/18 07:21:00;;;;;;;33.47;20.98;;;10.70;99.90;;;;;;5051322;28;20029;-72
2020/12/18 07:23:27;;;;;;;34.45;21.33;;;10.70;99.90;;;;;;5050900;28;20477;-72
2020/12/18 07:25:55;;;;;;;34.70;20.08;;;10.70;99.90;;;;;;5050256;28;20043;-72
2020/12/18 07:28:21;;;;;;;34.53;19.50;;;10.70;99.90;;;;;;5051108;28;20025;-72
2020/12/18 07:30:49;;;;;;;32.13;20.90;;;10.70;99.90;;;;;;5051044;28;20025;-72
2020/12/18 07:33:16;;;;;;;31.33;18.95;;;10.80;99.90;;;;;;5051023;28;20021;-72
2020/12/18 07:35:45;;;;;;;36.88;19.95;;;10.70;99.90;;;;;;5051007;28;20032;-70
2020/12/18 07:38:15;;;;;;;35.22;20.27;;;10.80;99.90;;;;;;5051144;28;20543;-70
2020/12/18 07:40:42;;;;;;;31.25;19.92;;;10.80;99.90;;;;;;5051340;28;20028;-71
2020/12/18 07:43:12;;;;;;;42.38;23.38;;;10.80;99.90;;;;;;5050029;28;20124;-71
2020/12/18 07:45:47;;;;;;;54.67;27.35;;;10.80;99.90;;;;;;5050927;28;20052;-71
2020/12/18 07:48:18;;;;;;;43.47;24.25;;;10.80;99.90;;;;;;5051244;28;20532;-73
2020/12/18 07:51:19;;;;;;;41.70;24.50;;;10.80;99.90;;;;;;5050653;28;20070;-72
2020/12/18 07:53:52;;;;;;;50.38;25.13;;;10.80;99.90;;;;;;5048304;28;20377;-72
2020/12/18 07:56:19;;;;;;;45.40;26.02;;;10.90;99.90;;;;;;5049848;28;20009;-70
2020/12/18 07:58:54;;;;;;;49.25;27.63;;;10.90;99.90;;;;;;5050720;28;20384;-73
2020/12/18 08:01:21;;;;;;;41.60;26.48;;;10.90;99.90;;;;;;5050415;28;20013;-70
2020/12/18 08:03:57;;;;;;;43.70;29.02;;;11.00;99.90;;;;;;5056412;28;20044;-71
2020/12/18 08:06:29;;;;;;;54.63;27.52;;;11.00;99.90;;;;;;5054710;28;20031;-72
2020/12/18 08:09:05;;;;;;;45.30;26.40;;;11.00;99.90;;;;;;5054521;28;20387;-72
2020/12/18 08:11:33;;;;;;;43.13;26.85;;;11.00;99.90;;;;;;5053452;28;20017;-71
2020/12/18 08:14:00;;;;;;;49.33;27.27;;;11.00;99.90;;;;;;5053104;28;20017;-71
2020/12/18 08:16:29;;;;;;;51.13;26.80;;;11.00;99.90;;;;;;5055047;28;20021;-72
2020/12/18 08:19:00;;;;;;;52.25;27.17;;;11.10;99.90;;;;;;5054497;28;20441;-71
2020/12/18 08:21:28;;;;;;;50.40;26.75;;;11.10;99.90;;;;;;5056331;28;20496;-72
2020/12/18 08:24:14;;;;;;;45.33;27.00;;;11.10;99.90;;;;;;5053868;28;20029;-72
2020/12/18 08:27:12;;;;;;;56.60;28.08;;;11.10;99.90;;;;;;5054107;28;20029;-72
2020/12/18 08:29:39;;;;;;;58.17;29.92;;;11.20;99.90;;;;;;5043739;28;20040;-72
2020/12/18 08:32:07;;;;;;;47.90;29.65;;;11.20;99.90;;;;;;5053809;28;20029;-72
2020/12/18 08:34:34;;;;;;;49.13;28.05;;;11.20;99.90;;;;;;5052949;28;20017;-72
2020/12/18 08:37:01;;;;;;;50.47;27.95;;;11.20;99.90;;;;;;5046988;28;20025;-72
2020/12/18 08:39:32;;;;;;;50.10;27.88;;;11.20;99.90;;;;;;5054183;28;20028;-72
2020/12/18 08:41:59;;;;;;;53.80;28.50;;;11.20;99.90;;;;;;5053957;28;20388;-71
2020/12/18 08:44:38;;;;;;;48.75;28.98;;;11.30;99.90;;;;;;5045814;28;20485;-71
2020/12/18 08:47:21;;;;;;;52.00;27.55;;;11.30;99.90;;;;;;5054376;28;20017;-73
2020/12/18 08:49:51;;;;;;;45.55;27.35;;;11.30;99.90;;;;;;5055343;28;20127;-71
2020/12/18 08:52:28;;;;;;;38.97;25.95;;;11.40;99.90;;;;;;5052247;28;20025;-71
2020/12/18 08:55:07;;;;;;;58.13;29.10;;;11.40;99.90;;;;;;5052634;28;20107;-72
2020/12/18 08:57:36;;;;;;;45.60;29.95;;;11.40;99.90;;;;;;5055162;28;20029;-71
2020/12/18 09:00:11;;;;;;;47.83;30.92;;;11.50;99.90;;;;;;5053366;28;20052;-71
2020/12/18 09:02:49;;;;;;;63.72;33.35;;;11.50;99.90;;;;;;5055236;28;20120;-71
2020/12/18 09:05:27;;;;;;;53.38;32.65;;;11.50;99.90;;;;;;5051282;28;20021;-71
2020/12/18 09:08:00;;;;;;;54.97;34.00;;;11.50;99.90;;;;;;5051699;28;20108;-71
2020/12/18 09:10:41;;;;;;;61.72;31.52;;;11.60;99.90;;;;;;5067232;28;20117;-73
2020/12/18 09:13:20;;;;;;;54.13;32.15;;;11.60;99.90;;;;;;5044142;28;20049;-71
2020/12/18 09:16:00;;;;;;;73.10;33.17;;;11.60;99.90;;;;;;5045546;28;20025;-70
2020/12/18 09:18:30;;;;;;;63.67;32.13;;;11.70;99.90;;;;;;5052301;28;20021;-71
2020/12/18 09:21:08;;;;;;;54.00;32.03;;;11.70;99.90;;;;;;5053178;28;20540;-71
2020/12/18 09:23:34;;;;;;;59.15;32.45;;;11.80;99.90;;;;;;5050729;28;20033;-71
2020/12/18 09:26:01;;;;;;;64.75;32.08;;;11.80;99.90;;;;;;5053244;28;20027;-71
2020/12/18 09:28:33;;;;;;;63.47;32.03;;;11.90;99.90;;;;;;5058617;28;20031;-71
2020/12/18 09:30:59;;;;;;;54.75;34.15;;;12.00;99.90;;;;;;5052311;28;20136;-71
2020/12/18 09:33:32;;;;;;;64.38;33.95;;;12.10;99.90;;;;;;5051391;28;20527;-71
2020/12/18 09:36:08;;;;;;;76.00;35.60;;;12.20;99.90;;;;;;5050005;28;20029;-71
2020/12/18 09:38:37;;;;;;;84.07;32.92;;;12.30;99.90;;;;;;5052230;28;20111;-71
2020/12/18 09:41:05;;;;;;;75.00;33.47;;;12.40;99.90;;;;;;5050781;28;20550;-71
2020/12/18 09:43:32;;;;;;;79.15;35.78;;;12.50;99.90;;;;;;5051303;28;20037;-71
2020/12/18 09:45:59;;;;;;;65.38;31.98;;;12.50;99.90;;;;;;5050120;28;20024;-70
2020/12/18 09:48:26;;;;;;;53.70;31.25;;;12.60;99.90;;;;;;5052472;28;20060;-71
2020/12/18 09:50:56;;;;;;;55.90;29.83;;;12.60;99.90;;;;;;5052027;28;20074;-71
2020/12/18 09:53:26;;;;;;;51.40;29.80;;;12.70;99.90;;;;;;5040873;28;20016;-72
2020/12/18 09:55:53;;;;;;;50.97;28.77;;;12.70;99.90;;;;;;5054631;28;20020;-71
2020/12/18 09:58:20;;;;;;;60.65;29.88;;;12.80;99.90;;;;;;5050002;28;20056;-71
2020/12/18 10:00:49;;;;;;;46.85;28.30;;;12.80;99.90;;;;;;5052634;28;20078;-71
2020/12/18 10:03:15;;;;;;;48.20;29.42;;;12.80;99.90;;;;;;5055518;28;20068;-71
2020/12/18 10:05:44;;;;;;;54.55;30.73;;;12.90;99.90;;;;;;5051687;28;20554;-71
2020/12/18 10:08:10;;;;;;;54.80;30.17;;;12.90;99.90;;;;;;5052825;28;20017;-72
2020/12/18 10:10:36;;;;;;;67.40;30.52;;;12.90;99.90;;;;;;5052256;28;20107;-70
2020/12/18 10:13:02;;;;;;;58.20;32.55;;;12.90;99.90;;;;;;5051025;28;20431;-70
2020/12/18 10:15:28;;;;;;;65.40;32.67;;;12.90;99.90;;;;;;5051132;28;20036;-71
2020/12/18 10:17:57;;;;;;;77.93;35.58;;;12.90;99.90;;;;;;5052321;28;20405;-71
2020/12/18 10:20:23;;;;;;;59.85;33.70;;;12.90;99.90;;;;;;5051996;28;20021;-71
2020/12/18 10:22:49;;;;;;;53.70;31.02;;;12.90;99.90;;;;;;5052071;28;20124;-70
2020/12/18 10:25:15;;;;;;;72.13;34.75;;;13.00;99.90;;;;;;5051384;28;20025;-71
2020/12/18 10:27:45;;;;;;;56.53;35.35;;;13.00;99.90;;;;;;5049124;28;20029;-71
2020/12/18 10:30:14;;;;;;;70.40;36.28;;;13.10;99.90;;;;;;5051925;28;20021;-71
2020/12/18 10:32:45;;;;;;;57.72;34.30;;;13.10;99.90;;;;;;5051556;28;20017;-73
2020/12/18 10:35:11;;;;;;;71.13;37.33;;;13.00;99.90;;;;;;5050635;28;20469;-71
2020/12/18 10:37:37;;;;;;;72.10;33.40;;;13.00;99.90;;;;;;5051519;28;20028;-70
2020/12/18 10:40:05;;;;;;;67.80;33.88;;;12.90;99.90;;;;;;5051534;28;20012;-71
2020/12/18 10:42:31;;;;;;;53.33;32.75;;;12.90;99.90;;;;;;5050994;28;20043;-71
2020/12/18 10:44:56;;;;;;;67.88;36.90;;;12.90;99.90;;;;;;5049792;28;20017;-71
2020/12/18 10:47:22;;;;;;;59.05;34.05;;;12.90;99.90;;;;;;5050054;28;20040;-71
2020/12/18 10:49:48;;;;;;;52.58;32.53;;;12.90;99.90;;;;;;5050918;28;20385;-71
2020/12/18 10:52:14;;;;;;;62.85;33.35;;;12.90;99.90;;;;;;5049337;28;20021;-71
2020/12/18 10:54:40;;;;;;;55.95;33.88;;;13.00;99.90;;;;;;5051348;28;20031;-71
2020/12/18 10:57:05;;;;;;;60.45;34.95;;;13.10;99.90;;;;;;5049980;28;20039;-71
2020/12/18 10:59:32;;;;;;;54.13;33.65;;;13.20;99.90;;;;;;5050223;28;20091;-71
2020/12/18 11:01:59;;;;;;;70.18;33.85;;;13.20;99.90;;;;;;5053712;28;20037;-73
2020/12/18 11:04:26;;;;;;;49.90;33.95;;;13.30;99.90;;;;;;5060462;28;20021;-71
2020/12/18 11:06:52;;;;;;;59.00;34.63;;;13.30;99.90;;;;;;5051129;28;20123;-71
2020/12/18 11:09:19;;;;;;;55.67;34.20;;;13.30;99.90;;;;;;5051169;28;20024;-73
2020/12/18 11:11:45;;;;;;;58.15;35.53;;;13.40;99.90;;;;;;5051212;28;20059;-73
2020/12/18 11:14:11;;;;;;;61.75;35.13;;;13.40;99.90;;;;;;5051587;28;20492;-73
2020/12/18 11:16:37;;;;;;;53.00;33.17;;;13.40;99.90;;;;;;5052044;28;20029;-71
2020/12/18 11:19:04;;;;;;;56.38;35.58;;;13.40;99.90;;;;;;5051538;28;20033;-71
2020/12/18 11:21:30;;;;;;;62.17;34.22;;;13.50;99.90;;;;;;5051257;28;20041;-71
2020/12/18 11:23:56;;;;;;;61.97;33.45;;;13.50;99.90;;;;;;5051250;28;20031;-72
2020/12/18 11:26:23;;;;;;;58.10;31.08;;;13.60;99.90;;;;;;5050337;28;20472;-71
2020/12/18 11:28:49;;;;;;;53.60;31.27;;;13.70;99.90;;;;;;5050345;28;20063;-73
2020/12/18 11:31:15;;;;;;;51.35;31.35;;;13.80;99.90;;;;;;5051389;28;20068;-71
2020/12/18 11:33:41;;;;;;;42.25;29.70;;;13.80;99.90;;;;;;5051111;28;20024;-71
2020/12/18 11:36:07;;;;;;;53.63;31.38;;;13.80;99.90;;;;;;5051014;28;20472;-71
2020/12/18 11:38:33;;;;;;;48.50;29.88;;;13.90;99.90;;;;;;5052604;28;20045;-71
2020/12/18 11:40:58;;;;;;;50.00;32.88;;;13.90;99.90;;;;;;5053980;28;20028;-74
2020/12/18 11:43:24;;;;;;;46.20;30.63;;;13.90;99.90;;;;;;5052498;28;20037;-71
2020/12/18 11:45:50;;;;;;;43.00;31.48;;;14.00;99.90;;;;;;5054418;28;20453;-71
2020/12/18 11:48:15;;;;;;;44.78;30.98;;;14.00;99.90;;;;;;5054847;28;20040;-71
2020/12/18 11:50:41;;;;;;;49.50;30.02;;;14.00;99.90;;;;;;5055201;28;20067;-71
2020/12/18 11:53:08;;;;;;;47.90;31.45;;;14.10;99.90;;;;;;5053038;28;20424;-73
2020/12/18 11:55:34;;;;;;;56.90;32.50;;;14.10;99.90;;;;;;5054004;28;20044;-71
2020/12/18 11:58:00;;;;;;;47.25;30.70;;;14.20;99.90;;;;;;5052587;28;20021;-74
2020/12/18 12:00:26;;;;;;;55.60;32.00;;;14.30;99.90;;;;;;5051440;28;20036;-74
2020/12/18 12:02:53;;;;;;;51.10;32.97;;;14.40;99.90;;;;;;5066879;28;20028;-72
2020/12/18 12:05:20;;;;;;;49.53;31.30;;;14.50;99.90;;;;;;5069305;28;20040;-72
2020/12/18 12:07:46;;;;;;;46.20;32.90;;;14.60;99.90;;;;;;5050972;28;20359;-72
2020/12/18 12:10:13;;;;;;;45.25;31.85;;;14.70;99.90;;;;;;5053625;28;20492;-72
2020/12/18 12:12:39;;;;;;;52.05;33.95;;;14.80;99.90;;;;;;5058080;28;20028;-72
2020/12/18 12:15:06;;;;;;;53.35;36.88;;;14.90;99.90;;;;;;5058828;28;20028;-71
2020/12/18 12:17:32;;;;;;;57.95;36.70;;;14.80;99.90;;;;;;5056369;28;20033;-72
2020/12/18 12:19:58;;;;;;;56.95;37.72;;;14.80;99.90;;;;;;5070285;28;20032;-72
2020/12/18 12:22:24;;;;;;;60.15;37.60;;;14.70;99.90;;;;;;5060912;28;20037;-72
2020/12/18 12:24:51;;;;;;;59.10;38.53;;;14.60;99.90;;;;;;5053983;28;20171;-72
2020/12/18 12:27:22;;;;;;;59.45;38.60;;;14.60;99.90;;;;;;5054367;28;20044;-72
2020/12/18 12:29:48;;;;;;;57.13;37.60;;;14.40;99.90;;;;;;5054264;28;20112;-72
2020/12/18 12:32:14;;;;;;;60.63;39.70;;;14.40;99.90;;;;;;5050655;28;20059;-72
2020/12/18 12:34:40;;;;;;;68.50;42.00;;;14.30;99.90;;;;;;5052782;28;20053;-72